Orbital elements of FENGYUN 1C DEB
| Launched | 9 May 1999 |
| Flight ended | – |
| Launch site | Taiyuan Space Center, PRC |
| Owner | People's Republic of China |
| NORAD ID | 31660 |
| Date fetched |
Epoch osculation |
Inc. [°] |
Ecc. | RA asc node [hr] |
Arg Peri. [°] |
Mean anom [°] |
Mean motion [rev/day] |
Abs. mag |
| Date fetched |
Epoch osculation |
Inc. [°] |
Ecc. | RA asc node [hr] |
Arg Peri. [°] |
Mean anom [°] |
Mean motion [rev/day] |
Abs. mag |
| 2026 May 08 17:57 | 2026 May 03 05:01:02 | 98.5093 | 0.01025 | 8.3878 | 125.7454 | 235.3313 | 14.27620 | – |
| 2026 May 07 17:58 | 2026 May 03 05:01:02 | 98.5093 | 0.01025 | 8.3878 | 125.7454 | 235.3313 | 14.27620 | – |
| 2026 May 06 17:57 | 2026 May 03 05:01:02 | 98.5093 | 0.01025 | 8.3878 | 125.7454 | 235.3313 | 14.27620 | – |
| 2026 May 05 17:57 | 2026 May 03 05:01:02 | 98.5093 | 0.01025 | 8.3878 | 125.7454 | 235.3313 | 14.27620 | – |
| 2026 May 04 17:57 | 2026 Apr 28 05:35:17 | 98.5105 | 0.01021 | 8.0648 | 140.1752 | 235.3313 | 14.27620 | – |
| 2026 May 03 17:57 | 2026 Apr 28 05:35:17 | 98.5105 | 0.01021 | 8.0648 | 140.1752 | 235.3313 | 14.27620 | – |
| 2026 May 02 17:57 | 2026 Apr 28 05:35:17 | 98.5105 | 0.01021 | 8.0648 | 140.1752 | 235.3313 | 14.27620 | – |
| 2026 May 01 17:56 | 2026 Apr 28 05:35:17 | 98.5105 | 0.01021 | 8.0648 | 140.1752 | 235.3313 | 14.27620 | – |
| 2026 Apr 30 17:56 | 2026 Apr 28 05:35:17 | 98.5105 | 0.01021 | 8.0648 | 140.1752 | 235.3313 | 14.27620 | – |
| 2026 Apr 29 17:57 | 2026 Apr 23 06:09:28 | 98.5107 | 0.01023 | 7.7415 | 154.6810 | 235.3313 | 14.27620 | – |
| 2026 Apr 28 17:56 | 2026 Apr 23 06:09:28 | 98.5107 | 0.01023 | 7.7415 | 154.6810 | 235.3313 | 14.27620 | – |
| 2026 Apr 27 17:58 | 2026 Apr 23 06:09:28 | 98.5107 | 0.01023 | 7.7415 | 154.6810 | 235.3313 | 14.27620 | – |
| 2026 Apr 26 17:58 | 2026 Apr 23 06:09:28 | 98.5107 | 0.01023 | 7.7415 | 154.6810 | 235.3313 | 14.27620 | – |
| 2026 Apr 25 17:58 | 2026 Apr 23 06:09:28 | 98.5107 | 0.01023 | 7.7415 | 154.6810 | 235.3313 | 14.27620 | – |
| 2026 Apr 24 17:59 | 2026 Apr 23 06:09:28 | 98.5107 | 0.01023 | 7.7415 | 154.6810 | 235.3313 | 14.27620 | – |
| 2026 Apr 23 17:57 | 2026 Apr 14 06:50:39 | 98.5127 | 0.01011 | 7.1590 | 181.0318 | 235.3313 | 14.27620 | – |
| 2026 Apr 22 17:57 | 2026 Apr 14 06:50:39 | 98.5127 | 0.01011 | 7.1590 | 181.0318 | 235.3313 | 14.27620 | – |
| 2026 Apr 21 17:57 | 2026 Apr 14 06:50:39 | 98.5127 | 0.01011 | 7.1590 | 181.0318 | 235.3313 | 14.27620 | – |
| 2026 Apr 20 17:57 | 2026 Apr 14 06:50:39 | 98.5127 | 0.01011 | 7.1590 | 181.0318 | 235.3313 | 14.27620 | – |
| 2026 Apr 19 17:58 | 2026 Apr 14 06:50:39 | 98.5127 | 0.01011 | 7.1590 | 181.0318 | 235.3313 | 14.27620 | – |
| 2026 Apr 18 17:56 | 2026 Apr 12 17:50:14 | 98.5111 | 0.01011 | 7.0587 | 185.5566 | 235.3313 | 14.27620 | – |
| 2026 Apr 16 17:57 | 2026 Apr 12 17:50:14 | 98.5111 | 0.01011 | 7.0587 | 185.5566 | 235.3313 | 14.27620 | – |
| 2026 Apr 14 17:57 | 2026 Apr 12 17:50:14 | 98.5111 | 0.01011 | 7.0587 | 185.5566 | 235.3313 | 14.27620 | – |
| 2026 Apr 13 17:57 | 2026 Apr 12 17:50:14 | 98.5111 | 0.01011 | 7.0587 | 185.5566 | 235.3313 | 14.27620 | – |
| 2026 Apr 12 17:57 | 2026 Apr 01 17:44:18 | 98.5109 | 0.01004 | 6.3441 | 218.0171 | 235.3313 | 14.27620 | – |
| 2026 Apr 11 17:57 | 2026 Apr 01 17:44:18 | 98.5109 | 0.01004 | 6.3441 | 218.0171 | 235.3313 | 14.27620 | – |